sensor_id;sensor_type;location;lat;lon;timestamp;temperature;humidity
68977;SHT31;56029;52.568;13.588;2023-03-01T00:02:03;-4.51;96.64
68977;SHT31;56029;52.568;13.588;2023-03-01T00:04:30;-4.57;96.60
68977;SHT31;56029;52.568;13.588;2023-03-01T00:06:56;-4.61;96.44
68977;SHT31;56029;52.568;13.588;2023-03-01T00:09:21;-4.62;96.77
68977;SHT31;56029;52.568;13.588;2023-03-01T00:11:47;-4.59;97.72
68977;SHT31;56029;52.568;13.588;2023-03-01T00:14:13;-4.58;97.86
68977;SHT31;56029;52.568;13.588;2023-03-01T00:16:41;-4.55;98.10
68977;SHT31;56029;52.568;13.588;2023-03-01T00:19:11;-4.59;98.04
68977;SHT31;56029;52.568;13.588;2023-03-01T00:21:37;-4.65;97.48
68977;SHT31;56029;52.568;13.588;2023-03-01T00:24:03;-4.72;97.13
68977;SHT31;56029;52.568;13.588;2023-03-01T00:26:29;-4.75;97.84
68977;SHT31;56029;52.568;13.588;2023-03-01T00:28:57;-4.76;97.81
68977;SHT31;56029;52.568;13.588;2023-03-01T00:31:26;-4.72;98.68
68977;SHT31;56029;52.568;13.588;2023-03-01T00:33:56;-4.72;98.88
68977;SHT31;56029;52.568;13.588;2023-03-01T00:36:24;-4.71;98.85
68977;SHT31;56029;52.568;13.588;2023-03-01T00:38:50;-4.73;98.71
68977;SHT31;56029;52.568;13.588;2023-03-01T00:41:18;-4.79;98.52
68977;SHT31;56029;52.568;13.588;2023-03-01T00:43:44;-4.79;98.62
68977;SHT31;56029;52.568;13.588;2023-03-01T00:46:13;-4.79;98.77
68977;SHT31;56029;52.568;13.588;2023-03-01T00:48:39;-4.80;98.97
68977;SHT31;56029;52.568;13.588;2023-03-01T00:51:25;-4.83;98.82
68977;SHT31;56029;52.568;13.588;2023-03-01T00:53:53;-4.85;98.70
68977;SHT31;56029;52.568;13.588;2023-03-01T00:56:18;-4.83;98.82
68977;SHT31;56029;52.568;13.588;2023-03-01T00:58:44;-4.82;99.03
68977;SHT31;56029;52.568;13.588;2023-03-01T01:01:12;-4.78;98.37
68977;SHT31;56029;52.568;13.588;2023-03-01T01:03:55;-4.82;98.65
68977;SHT31;56029;52.568;13.588;2023-03-01T01:06:26;-4.73;98.63
68977;SHT31;56029;52.568;13.588;2023-03-01T01:08:53;-4.75;98.71
68977;SHT31;56029;52.568;13.588;2023-03-01T01:11:20;-4.73;98.44
68977;SHT31;56029;52.568;13.588;2023-03-01T01:13:46;-4.73;98.33
68977;SHT31;56029;52.568;13.588;2023-03-01T01:16:16;-4.78;98.28
68977;SHT31;56029;52.568;13.588;2023-03-01T01:18:42;-4.78;98.66
68977;SHT31;56029;52.568;13.588;2023-03-01T01:21:12;-4.78;98.27
68977;SHT31;56029;52.568;13.588;2023-03-01T01:23:39;-4.83;97.98
68977;SHT31;56029;52.568;13.588;2023-03-01T01:26:21;-4.85;97.50
68977;SHT31;56029;52.568;13.588;2023-03-01T01:28:47;-4.90;97.59
68977;SHT31;56029;52.568;13.588;2023-03-01T01:31:17;-4.95;96.90
68977;SHT31;56029;52.568;13.588;2023-03-01T01:33:43;-4.93;98.07
68977;SHT31;56029;52.568;13.588;2023-03-01T01:36:09;-4.90;99.01
68977;SHT31;56029;52.568;13.588;2023-03-01T01:38:36;-4.85;99.11
68977;SHT31;56029;52.568;13.588;2023-03-01T01:41:02;-4.83;99.20
68977;SHT31;56029;52.568;13.588;2023-03-01T01:43:33;-4.82;98.96
68977;SHT31;56029;52.568;13.588;2023-03-01T01:48:47;-4.96;97.93
68977;SHT31;56029;52.568;13.588;2023-03-01T01:51:18;-5.03;97.81
68977;SHT31;56029;52.568;13.588;2023-03-01T01:53:44;-5.11;97.82
68977;SHT31;56029;52.568;13.588;2023-03-01T01:56:12;-5.17;98.22
68977;SHT31;56029;52.568;13.588;2023-03-01T01:58:40;-5.17;97.93
68977;SHT31;56029;52.568;13.588;2023-03-01T02:01:07;-5.17;98.40
68977;SHT31;56029;52.568;13.588;2023-03-01T02:03:34;-5.16;98.50
68977;SHT31;56029;52.568;13.588;2023-03-01T02:06:22;-5.19;98.52
68977;SHT31;56029;52.568;13.588;2023-03-01T02:08:50;-5.20;98.48
68977;SHT31;56029;52.568;13.588;2023-03-01T02:11:18;-5.23;98.34
68977;SHT31;56029;52.568;13.588;2023-03-01T02:13:44;-5.24;98.00
68977;SHT31;56029;52.568;13.588;2023-03-01T02:16:13;-5.24;98.35
68977;SHT31;56029;52.568;13.588;2023-03-01T02:18:40;-5.31;98.28
68977;SHT31;56029;52.568;13.588;2023-03-01T02:21:34;-5.34;98.36
68977;SHT31;56029;52.568;13.588;2023-03-01T02:24:43;-5.32;98.70
68977;SHT31;56029;52.568;13.588;2023-03-01T02:27:10;-5.35;98.52
68977;SHT31;56029;52.568;13.588;2023-03-01T02:29:36;-5.38;98.84
68977;SHT31;56029;52.568;13.588;2023-03-01T02:32:03;-5.37;99.49
68977;SHT31;56029;52.568;13.588;2023-03-01T02:34:30;-5.35;99.57
68977;SHT31;56029;52.568;13.588;2023-03-01T02:37:05;-5.37;99.64
68977;SHT31;56029;52.568;13.588;2023-03-01T02:39:42;-5.31;99.91
68977;SHT31;56029;52.568;13.588;2023-03-01T02:42:17;-5.35;99.75
68977;SHT31;56029;52.568;13.588;2023-03-01T02:44:43;-5.37;99.13
68977;SHT31;56029;52.568;13.588;2023-03-01T02:47:10;-5.48;98.48
68977;SHT31;56029;52.568;13.588;2023-03-01T02:49:36;-5.57;98.73
68977;SHT31;56029;52.568;13.588;2023-03-01T02:52:27;-5.62;98.63
68977;SHT31;56029;52.568;13.588;2023-03-01T02:54:58;-5.65;98.67
68977;SHT31;56029;52.568;13.588;2023-03-01T02:57:26;-5.68;98.89
68977;SHT31;56029;52.568;13.588;2023-03-01T02:59:54;-5.68;98.52
68977;SHT31;56029;52.568;13.588;2023-03-01T03:02:24;-5.68;98.84
68977;SHT31;56029;52.568;13.588;2023-03-01T03:05:16;-5.69;98.56
68977;SHT31;56029;52.568;13.588;2023-03-01T03:07:45;-5.69;99.26
68977;SHT31;56029;52.568;13.588;2023-03-01T03:10:46;-5.64;99.21
68977;SHT31;56029;52.568;13.588;2023-03-01T03:13:08;-5.62;99.54
68977;SHT31;56029;52.568;13.588;2023-03-01T03:15:34;-5.65;99.18
68977;SHT31;56029;52.568;13.588;2023-03-01T03:18:02;-5.77;98.88
68977;SHT31;56029;52.568;13.588;2023-03-01T03:20:29;-5.86;98.86
68977;SHT31;56029;52.568;13.588;2023-03-01T03:22:56;-5.90;99.07
68977;SHT31;56029;52.568;13.588;2023-03-01T03:25:24;-5.92;99.21
68977;SHT31;56029;52.568;13.588;2023-03-01T03:27:51;-5.89;99.65
68977;SHT31;56029;52.568;13.588;2023-03-01T03:30:23;-5.86;99.90
68977;SHT31;56029;52.568;13.588;2023-03-01T03:32:49;-5.86;99.01
68977;SHT31;56029;52.568;13.588;2023-03-01T03:35:23;-5.83;99.52
68977;SHT31;56029;52.568;13.588;2023-03-01T03:37:50;-5.88;99.70
68977;SHT31;56029;52.568;13.588;2023-03-01T03:42:55;-5.86;99.60
68977;SHT31;56029;52.568;13.588;2023-03-01T03:45:21;-5.85;99.99
68977;SHT31;56029;52.568;13.588;2023-03-01T03:47:46;-5.83;99.99
68977;SHT31;56029;52.568;13.588;2023-03-01T03:50:14;-5.85;99.99
68977;SHT31;56029;52.568;13.588;2023-03-01T03:52:40;-5.93;99.63
68977;SHT31;56029;52.568;13.588;2023-03-01T03:55:06;-5.95;99.99
68977;SHT31;56029;52.568;13.588;2023-03-01T03:57:37;-5.96;99.99
68977;SHT31;56029;52.568;13.588;2023-03-01T04:00:04;-6.05;99.47
68977;SHT31;56029;52.568;13.588;2023-03-01T04:02:31;-6.09;99.38
68977;SHT31;56029;52.568;13.588;2023-03-01T04:04:56;-6.10;99.59
68977;SHT31;56029;52.568;13.588;2023-03-01T04:07:22;-6.14;99.54
68977;SHT31;56029;52.568;13.588;2023-03-01T04:09:47;-6.13;99.86
68977;SHT31;56029;52.568;13.588;2023-03-01T04:12:13;-6.09;99.81
68977;SHT31;56029;52.568;13.588;2023-03-01T04:14:38;-6.10;99.37
68977;SHT31;56029;52.568;13.588;2023-03-01T04:17:04;-6.13;99.29
68977;SHT31;56029;52.568;13.588;2023-03-01T04:19:33;-6.14;99.10
68977;SHT31;56029;52.568;13.588;2023-03-01T04:22:02;-6.17;99.11
68977;SHT31;56029;52.568;13.588;2023-03-01T04:24:35;-6.16;99.06
68977;SHT31;56029;52.568;13.588;2023-03-01T04:27:01;-6.17;99.52
68977;SHT31;56029;52.568;13.588;2023-03-01T04:29:27;-6.11;99.99
68977;SHT31;56029;52.568;13.588;2023-03-01T04:31:53;-6.10;99.99
68977;SHT31;56029;52.568;13.588;2023-03-01T04:34:18;-6.09;99.59
68977;SHT31;56029;52.568;13.588;2023-03-01T04:36:44;-6.10;99.26
68977;SHT31;56029;52.568;13.588;2023-03-01T04:39:10;-6.14;99.47
68977;SHT31;56029;52.568;13.588;2023-03-01T04:41:39;-6.11;99.99
68977;SHT31;56029;52.568;13.588;2023-03-01T04:44:05;-6.09;99.99
68977;SHT31;56029;52.568;13.588;2023-03-01T04:46:31;-6.10;99.99
68977;SHT31;56029;52.568;13.588;2023-03-01T04:48:56;-6.05;99.99
68977;SHT31;56029;52.568;13.588;2023-03-01T04:51:22;-6.11;99.99
68977;SHT31;56029;52.568;13.588;2023-03-01T04:53:48;-6.13;99.99
68977;SHT31;56029;52.568;13.588;2023-03-01T04:56:13;-6.13;99.99
68977;SHT31;56029;52.568;13.588;2023-03-01T04:58:39;-6.10;99.99
68977;SHT31;56029;52.568;13.588;2023-03-01T05:01:10;-6.11;99.99
68977;SHT31;56029;52.568;13.588;2023-03-01T05:03:43;-6.20;99.99
68977;SHT31;56029;52.568;13.588;2023-03-01T05:06:09;-6.27;99.99
68977;SHT31;56029;52.568;13.588;2023-03-01T05:08:37;-6.31;99.99
68977;SHT31;56029;52.568;13.588;2023-03-01T05:11:02;-6.31;99.99
68977;SHT31;56029;52.568;13.588;2023-03-01T05:13:28;-6.31;99.99
68977;SHT31;56029;52.568;13.588;2023-03-01T05:15:57;-6.33;99.99
68977;SHT31;56029;52.568;13.588;2023-03-01T05:18:24;-6.30;99.99
68977;SHT31;56029;52.568;13.588;2023-03-01T05:21:06;-6.27;99.99
68977;SHT31;56029;52.568;13.588;2023-03-01T05:23:33;-6.26;99.99
68977;SHT31;56029;52.568;13.588;2023-03-01T05:26:00;-6.26;99.99
68977;SHT31;56029;52.568;13.588;2023-03-01T05:28:26;-6.30;99.99
68977;SHT31;56029;52.568;13.588;2023-03-01T05:30:54;-6.33;99.99
68977;SHT31;56029;52.568;13.588;2023-03-01T05:33:19;-6.31;99.99
68977;SHT31;56029;52.568;13.588;2023-03-01T05:35:48;-6.37;99.99
68977;SHT31;56029;52.568;13.588;2023-03-01T05:38:15;-6.37;99.99
68977;SHT31;56029;52.568;13.588;2023-03-01T05:40:45;-6.38;99.99
68977;SHT31;56029;52.568;13.588;2023-03-01T05:43:12;-6.37;99.99
68977;SHT31;56029;52.568;13.588;2023-03-01T05:45:39;-6.40;99.99
68977;SHT31;56029;52.568;13.588;2023-03-01T05:48:06;-6.31;99.99
68977;SHT31;56029;52.568;13.588;2023-03-01T05:50:36;-6.24;99.99
68977;SHT31;56029;52.568;13.588;2023-03-01T05:55:29;-6.21;99.99
68977;SHT31;56029;52.568;13.588;2023-03-01T05:57:58;-6.27;99.99
68977;SHT31;56029;52.568;13.588;2023-03-01T06:00:24;-6.33;99.70
68977;SHT31;56029;52.568;13.588;2023-03-01T06:02:49;-6.36;99.90
68977;SHT31;56029;52.568;13.588;2023-03-01T06:05:17;-6.40;99.90
68977;SHT31;56029;52.568;13.588;2023-03-01T06:07:43;-6.42;99.71
68977;SHT31;56029;52.568;13.588;2023-03-01T06:10:11;-6.41;99.70
68977;SHT31;56029;52.568;13.588;2023-03-01T06:12:38;-6.37;99.99
68977;SHT31;56029;52.568;13.588;2023-03-01T06:15:04;-6.36;99.83
68977;SHT31;56029;52.568;13.588;2023-03-01T06:17:32;-6.31;99.83
68977;SHT31;56029;52.568;13.588;2023-03-01T06:19:58;-6.27;99.99
68977;SHT31;56029;52.568;13.588;2023-03-01T06:22:23;-6.24;99.75
68977;SHT31;56029;52.568;13.588;2023-03-01T06:24:49;-6.19;99.61
68977;SHT31;56029;52.568;13.588;2023-03-01T06:27:15;-6.13;99.40
68977;SHT31;56029;52.568;13.588;2023-03-01T06:29:41;-6.00;99.99
68977;SHT31;56029;52.568;13.588;2023-03-01T06:32:06;-5.96;99.99
68977;SHT31;56029;52.568;13.588;2023-03-01T06:34:33;-5.90;99.98
68977;SHT31;56029;52.568;13.588;2023-03-01T06:36:58;-5.88;99.79
68977;SHT31;56029;52.568;13.588;2023-03-01T06:39:24;-5.82;99.99
68977;SHT31;56029;52.568;13.588;2023-03-01T06:41:50;-5.75;99.99
68977;SHT31;56029;52.568;13.588;2023-03-01T06:44:15;-5.65;99.99
68977;SHT31;56029;52.568;13.588;2023-03-01T06:46:41;-5.61;99.99
68977;SHT31;56029;52.568;13.588;2023-03-01T06:49:07;-5.59;99.67
68977;SHT31;56029;52.568;13.588;2023-03-01T06:51:36;-5.55;99.63
68977;SHT31;56029;52.568;13.588;2023-03-01T06:54:03;-5.44;99.99
68977;SHT31;56029;52.568;13.588;2023-03-01T06:56:29;-5.40;99.92
68977;SHT31;56029;52.568;13.588;2023-03-01T06:58:55;-5.32;99.46
68977;SHT31;56029;52.568;13.588;2023-03-01T07:01:20;-5.24;99.94
68977;SHT31;56029;52.568;13.588;2023-03-01T07:03:46;-5.16;99.53
68977;SHT31;56029;52.568;13.588;2023-03-01T07:06:11;-5.07;99.77
68977;SHT31;56029;52.568;13.588;2023-03-01T07:08:37;-4.95;99.99
68977;SHT31;56029;52.568;13.588;2023-03-01T07:11:02;-4.85;99.83
68977;SHT31;56029;52.568;13.588;2023-03-01T07:13:29;-4.73;99.43
68977;SHT31;56029;52.568;13.588;2023-03-01T07:15:55;-4.61;99.29
68977;SHT31;56029;52.568;13.588;2023-03-01T07:18:21;-4.52;99.41
68977;SHT31;56029;52.568;13.588;2023-03-01T07:20:47;-4.40;99.36
68977;SHT31;56029;52.568;13.588;2023-03-01T07:23:12;-4.25;99.34
68977;SHT31;56029;52.568;13.588;2023-03-01T07:25:38;-4.13;99.25
68977;SHT31;56029;52.568;13.588;2023-03-01T07:28:04;-3.91;99.61
68977;SHT31;56029;52.568;13.588;2023-03-01T07:30:29;-3.72;99.20
68977;SHT31;56029;52.568;13.588;2023-03-01T07:32:56;-3.59;98.68
68977;SHT31;56029;52.568;13.588;2023-03-01T07:35:24;-3.45;98.94
68977;SHT31;56029;52.568;13.588;2023-03-01T07:37:50;-3.34;97.52
68977;SHT31;56029;52.568;13.588;2023-03-01T07:40:16;-3.28;96.96
68977;SHT31;56029;52.568;13.588;2023-03-01T07:42:41;-3.20;97.45
68977;SHT31;56029;52.568;13.588;2023-03-01T07:45:07;-3.04;97.37
68977;SHT31;56029;52.568;13.588;2023-03-01T07:47:33;-2.87;97.39
68977;SHT31;56029;52.568;13.588;2023-03-01T07:49:58;-2.65;97.49
68977;SHT31;56029;52.568;13.588;2023-03-01T07:52:24;-2.39;96.97
68977;SHT31;56029;52.568;13.588;2023-03-01T07:54:50;-2.22;96.38
68977;SHT31;56029;52.568;13.588;2023-03-01T07:57:15;-2.10;95.78
68977;SHT31;56029;52.568;13.588;2023-03-01T07:59:41;-2.01;93.84
68977;SHT31;56029;52.568;13.588;2023-03-01T08:02:08;-1.94;92.88
68977;SHT31;56029;52.568;13.588;2023-03-01T08:04:33;-1.87;91.81
68977;SHT31;56029;52.568;13.588;2023-03-01T08:06:59;-1.77;91.15
68977;SHT31;56029;52.568;13.588;2023-03-01T08:09:24;-1.62;91.64
68977;SHT31;56029;52.568;13.588;2023-03-01T08:11:50;-1.52;91.46
68977;SHT31;56029;52.568;13.588;2023-03-01T08:14:16;-1.46;91.12
68977;SHT31;56029;52.568;13.588;2023-03-01T08:16:42;-1.31;90.58
68977;SHT31;56029;52.568;13.588;2023-03-01T08:19:10;-1.16;90.24
68977;SHT31;56029;52.568;13.588;2023-03-01T08:21:37;-1.11;89.71
68977;SHT31;56029;52.568;13.588;2023-03-01T08:24:11;-0.97;89.88
68977;SHT31;56029;52.568;13.588;2023-03-01T08:26:37;-0.76;88.28
68977;SHT31;56029;52.568;13.588;2023-03-01T08:29:03;-0.25;86.16
68977;SHT31;56029;52.568;13.588;2023-03-01T08:31:32;-0.21;85.13
68977;SHT31;56029;52.568;13.588;2023-03-01T08:34:00;0.02;85.63
68977;SHT31;56029;52.568;13.588;2023-03-01T08:36:31;0.13;85.33
68977;SHT31;56029;52.568;13.588;2023-03-01T08:38:57;0.33;83.69
68977;SHT31;56029;52.568;13.588;2023-03-01T08:41:23;0.73;81.60
68977;SHT31;56029;52.568;13.588;2023-03-01T08:43:49;0.77;80.56
68977;SHT31;56029;52.568;13.588;2023-03-01T08:46:15;0.92;79.04
68977;SHT31;56029;52.568;13.588;2023-03-01T08:48:40;1.02;78.27
68977;SHT31;56029;52.568;13.588;2023-03-01T08:51:14;1.12;79.05
68977;SHT31;56029;52.568;13.588;2023-03-01T08:53:40;1.26;76.29
68977;SHT31;56029;52.568;13.588;2023-03-01T08:56:07;1.36;75.81
68977;SHT31;56029;52.568;13.588;2023-03-01T08:58:33;1.36;75.65
68977;SHT31;56029;52.568;13.588;2023-03-01T09:00:59;1.50;75.18
68977;SHT31;56029;52.568;13.588;2023-03-01T09:03:26;1.47;76.07
68977;SHT31;56029;52.568;13.588;2023-03-01T09:05:52;1.71;76.02
68977;SHT31;56029;52.568;13.588;2023-03-01T09:08:19;1.87;74.84
68977;SHT31;56029;52.568;13.588;2023-03-01T09:10:45;1.97;75.29
68977;SHT31;56029;52.568;13.588;2023-03-01T09:13:11;2.17;75.78
68977;SHT31;56029;52.568;13.588;2023-03-01T09:15:37;2.22;74.83
68977;SHT31;56029;52.568;13.588;2023-03-01T09:18:03;2.24;74.07
68977;SHT31;56029;52.568;13.588;2023-03-01T09:20:30;2.28;75.11
68977;SHT31;56029;52.568;13.588;2023-03-01T09:22:56;2.35;75.16
68977;SHT31;56029;52.568;13.588;2023-03-01T09:25:22;2.41;74.67
68977;SHT31;56029;52.568;13.588;2023-03-01T09:27:51;2.46;74.39
68977;SHT31;56029;52.568;13.588;2023-03-01T09:30:17;2.49;73.95
68977;SHT31;56029;52.568;13.588;2023-03-01T09:32:42;2.66;74.33
68977;SHT31;56029;52.568;13.588;2023-03-01T09:35:11;2.70;72.25
68977;SHT31;56029;52.568;13.588;2023-03-01T09:37:37;2.75;73.28
68977;SHT31;56029;52.568;13.588;2023-03-01T09:40:04;2.77;72.64
68977;SHT31;56029;52.568;13.588;2023-03-01T09:42:32;2.84;71.32
68977;SHT31;56029;52.568;13.588;2023-03-01T09:45:19;2.86;72.94
68977;SHT31;56029;52.568;13.588;2023-03-01T09:47:47;3.01;73.04
68977;SHT31;56029;52.568;13.588;2023-03-01T09:50:20;3.05;72.16
68977;SHT31;56029;52.568;13.588;2023-03-01T09:53:13;3.17;72.21
68977;SHT31;56029;52.568;13.588;2023-03-01T09:58:39;3.43;71.03
68977;SHT31;56029;52.568;13.588;2023-03-01T10:01:32;3.42;72.06
68977;SHT31;56029;52.568;13.588;2023-03-01T10:04:08;3.38;71.62
68977;SHT31;56029;52.568;13.588;2023-03-01T10:06:38;3.51;70.97
68977;SHT31;56029;52.568;13.588;2023-03-01T10:09:22;3.55;70.41
68977;SHT31;56029;52.568;13.588;2023-03-01T10:11:54;3.46;71.29
68977;SHT31;56029;52.568;13.588;2023-03-01T10:14:30;3.66;68.16
68977;SHT31;56029;52.568;13.588;2023-03-01T10:17:03;3.66;68.58
68977;SHT31;56029;52.568;13.588;2023-03-01T10:19:47;3.82;68.15
68977;SHT31;56029;52.568;13.588;2023-03-01T10:22:16;3.87;66.51
68977;SHT31;56029;52.568;13.588;2023-03-01T10:24:46;3.86;68.02
68977;SHT31;56029;52.568;13.588;2023-03-01T10:27:23;4.18;67.01
68977;SHT31;56029;52.568;13.588;2023-03-01T10:30:00;4.00;67.86
68977;SHT31;56029;52.568;13.588;2023-03-01T10:32:28;4.00;66.50
68977;SHT31;56029;52.568;13.588;2023-03-01T10:34:54;3.96;67.74
68977;SHT31;56029;52.568;13.588;2023-03-01T10:37:21;4.00;67.53
68977;SHT31;56029;52.568;13.588;2023-03-01T10:40:04;4.16;67.76
68977;SHT31;56029;52.568;13.588;2023-03-01T10:42:46;4.22;64.68
68977;SHT31;56029;52.568;13.588;2023-03-01T10:48:03;4.16;66.51
68977;SHT31;56029;52.568;13.588;2023-03-01T10:50:28;4.20;63.79
68977;SHT31;56029;52.568;13.588;2023-03-01T10:52:59;4.17;64.72
68977;SHT31;56029;52.568;13.588;2023-03-01T10:55:36;4.44;63.05
68977;SHT31;56029;52.568;13.588;2023-03-01T10:58:08;4.47;63.04
68977;SHT31;56029;52.568;13.588;2023-03-01T11:00:45;4.48;61.32
68977;SHT31;56029;52.568;13.588;2023-03-01T11:03:23;4.55;63.27
68977;SHT31;56029;52.568;13.588;2023-03-01T11:05:55;4.54;62.27
68977;SHT31;56029;52.568;13.588;2023-03-01T11:08:38;4.48;63.15
68977;SHT31;56029;52.568;13.588;2023-03-01T11:11:18;4.41;62.44
68977;SHT31;56029;52.568;13.588;2023-03-01T11:14:12;4.59;59.10
68977;SHT31;56029;52.568;13.588;2023-03-01T11:16:41;4.65;58.99
68977;SHT31;56029;52.568;13.588;2023-03-01T11:21:43;4.85;59.80
68977;SHT31;56029;52.568;13.588;2023-03-01T11:24:12;4.79;60.16
68977;SHT31;56029;52.568;13.588;2023-03-01T11:26:41;4.78;60.46
68977;SHT31;56029;52.568;13.588;2023-03-01T11:29:21;4.75;60.78
68977;SHT31;56029;52.568;13.588;2023-03-01T11:31:48;4.87;59.78
68977;SHT31;56029;52.568;13.588;2023-03-01T11:34:20;4.85;60.20
68977;SHT31;56029;52.568;13.588;2023-03-01T11:36:56;4.99;59.67
68977;SHT31;56029;52.568;13.588;2023-03-01T11:39:38;5.01;59.09
68977;SHT31;56029;52.568;13.588;2023-03-01T11:42:15;5.00;60.19
68977;SHT31;56029;52.568;13.588;2023-03-01T11:44:44;5.12;57.22
68977;SHT31;56029;52.568;13.588;2023-03-01T11:55:46;5.41;57.87
68977;SHT31;56029;52.568;13.588;2023-03-01T11:58:47;5.52;59.59
68977;SHT31;56029;52.568;13.588;2023-03-01T12:01:30;5.48;59.00
68977;SHT31;56029;52.568;13.588;2023-03-01T12:04:11;5.61;58.03
68977;SHT31;56029;52.568;13.588;2023-03-01T12:06:52;5.47;54.58
68977;SHT31;56029;52.568;13.588;2023-03-01T12:09:37;5.33;57.48
68977;SHT31;56029;52.568;13.588;2023-03-01T12:20:32;5.65;53.91
68977;SHT31;56029;52.568;13.588;2023-03-01T12:23:21;5.58;54.91
68977;SHT31;56029;52.568;13.588;2023-03-01T12:26:03;5.57;56.91
68977;SHT31;56029;52.568;13.588;2023-03-01T12:28:49;5.48;59.30
68977;SHT31;56029;52.568;13.588;2023-03-01T12:34:11;5.61;58.36
68977;SHT31;56029;52.568;13.588;2023-03-01T12:39:56;5.95;55.81
68977;SHT31;56029;52.568;13.588;2023-03-01T12:42:40;6.01;56.77
68977;SHT31;56029;52.568;13.588;2023-03-01T12:45:34;5.94;55.23
68977;SHT31;56029;52.568;13.588;2023-03-01T12:51:24;5.88;53.64
68977;SHT31;56029;52.568;13.588;2023-03-01T12:53:55;5.95;55.75
68977;SHT31;56029;52.568;13.588;2023-03-01T12:56:25;5.96;56.67
68977;SHT31;56029;52.568;13.588;2023-03-01T12:58:58;5.99;55.86
68977;SHT31;56029;52.568;13.588;2023-03-01T13:01:36;5.96;56.78
68977;SHT31;56029;52.568;13.588;2023-03-01T13:04:23;6.15;56.06
68977;SHT31;56029;52.568;13.588;2023-03-01T13:15:36;6.29;54.89
68977;SHT31;56029;52.568;13.588;2023-03-01T13:18:11;6.23;55.11
68977;SHT31;56029;52.568;13.588;2023-03-01T13:20:52;6.22;55.88
68977;SHT31;56029;52.568;13.588;2023-03-01T13:31:05;6.16;54.07
68977;SHT31;56029;52.568;13.588;2023-03-01T13:35:58;6.29;56.14
68977;SHT31;56029;52.568;13.588;2023-03-01T13:41:07;6.37;53.82
68977;SHT31;56029;52.568;13.588;2023-03-01T13:43:38;6.43;55.30
68977;SHT31;56029;52.568;13.588;2023-03-01T13:46:11;6.34;55.38
68977;SHT31;56029;52.568;13.588;2023-03-01T13:48:38;6.34;55.43
68977;SHT31;56029;52.568;13.588;2023-03-01T13:51:07;6.43;53.19
68977;SHT31;56029;52.568;13.588;2023-03-01T13:53:37;6.33;55.17
68977;SHT31;56029;52.568;13.588;2023-03-01T13:56:19;6.32;55.56
68977;SHT31;56029;52.568;13.588;2023-03-01T13:58:53;6.36;52.90
68977;SHT31;56029;52.568;13.588;2023-03-01T14:01:24;6.40;52.31
68977;SHT31;56029;52.568;13.588;2023-03-01T14:03:50;6.36;55.27
68977;SHT31;56029;52.568;13.588;2023-03-01T14:06:20;6.38;53.90
68977;SHT31;56029;52.568;13.588;2023-03-01T14:08:48;6.34;54.03
68977;SHT31;56029;52.568;13.588;2023-03-01T14:11:30;6.38;54.13
68977;SHT31;56029;52.568;13.588;2023-03-01T14:14:10;6.36;52.86
68977;SHT31;56029;52.568;13.588;2023-03-01T14:16:56;6.58;52.37
68977;SHT31;56029;52.568;13.588;2023-03-01T14:19:29;6.63;52.01
68977;SHT31;56029;52.568;13.588;2023-03-01T14:22:19;6.74;51.75
68977;SHT31;56029;52.568;13.588;2023-03-01T14:24:54;6.78;50.31
68977;SHT31;56029;52.568;13.588;2023-03-01T14:27:21;6.77;51.16
68977;SHT31;56029;52.568;13.588;2023-03-01T14:29:56;6.80;51.95
68977;SHT31;56029;52.568;13.588;2023-03-01T14:32:25;6.73;53.21
68977;SHT31;56029;52.568;13.588;2023-03-01T14:34:52;6.74;52.04
68977;SHT31;56029;52.568;13.588;2023-03-01T14:37:24;6.81;50.79
68977;SHT31;56029;52.568;13.588;2023-03-01T14:39:50;6.82;50.78
68977;SHT31;56029;52.568;13.588;2023-03-01T14:42:17;6.74;50.66
68977;SHT31;56029;52.568;13.588;2023-03-01T14:44:46;6.64;51.72
68977;SHT31;56029;52.568;13.588;2023-03-01T14:47:16;6.55;52.21
68977;SHT31;56029;52.568;13.588;2023-03-01T14:49:44;6.53;53.81
68977;SHT31;56029;52.568;13.588;2023-03-01T14:52:27;6.47;52.93
68977;SHT31;56029;52.568;13.588;2023-03-01T14:54:56;6.47;55.39
68977;SHT31;56029;52.568;13.588;2023-03-01T14:57:24;6.40;56.04
68977;SHT31;56029;52.568;13.588;2023-03-01T14:59:53;6.33;56.96
68977;SHT31;56029;52.568;13.588;2023-03-01T15:02:22;6.43;57.41
68977;SHT31;56029;52.568;13.588;2023-03-01T15:04:51;6.57;57.57
68977;SHT31;56029;52.568;13.588;2023-03-01T15:07:18;6.64;56.46
68977;SHT31;56029;52.568;13.588;2023-03-01T15:09:44;6.71;55.65
68977;SHT31;56029;52.568;13.588;2023-03-01T15:14:57;6.82;56.43
68977;SHT31;56029;52.568;13.588;2023-03-01T15:17:37;6.78;57.66
68977;SHT31;56029;52.568;13.588;2023-03-01T15:20:16;6.78;57.74
68977;SHT31;56029;52.568;13.588;2023-03-01T15:22:46;6.73;58.45
68977;SHT31;56029;52.568;13.588;2023-03-01T15:25:16;6.80;59.16
68977;SHT31;56029;52.568;13.588;2023-03-01T15:27:45;6.82;58.26
68977;SHT31;56029;52.568;13.588;2023-03-01T15:30:37;6.75;59.02
68977;SHT31;56029;52.568;13.588;2023-03-01T15:33:17;6.67;59.81
68977;SHT31;56029;52.568;13.588;2023-03-01T15:35:49;6.61;60.70
68977;SHT31;56029;52.568;13.588;2023-03-01T15:38:32;6.82;58.84
68977;SHT31;56029;52.568;13.588;2023-03-01T15:41:22;6.80;59.31
68977;SHT31;56029;52.568;13.588;2023-03-01T15:43:48;6.73;59.97
68977;SHT31;56029;52.568;13.588;2023-03-01T15:46:31;6.71;60.02
68977;SHT31;56029;52.568;13.588;2023-03-01T15:48:59;6.61;62.01
68977;SHT31;56029;52.568;13.588;2023-03-01T15:51:32;6.74;60.10
68977;SHT31;56029;52.568;13.588;2023-03-01T15:54:01;6.63;61.05
68977;SHT31;56029;52.568;13.588;2023-03-01T15:56:27;6.48;62.22
68977;SHT31;56029;52.568;13.588;2023-03-01T15:58:52;6.41;62.95
68977;SHT31;56029;52.568;13.588;2023-03-01T16:01:18;6.30;62.71
68977;SHT31;56029;52.568;13.588;2023-03-01T16:03:44;6.44;60.42
68977;SHT31;56029;52.568;13.588;2023-03-01T16:06:10;6.32;61.97
68977;SHT31;56029;52.568;13.588;2023-03-01T16:08:37;6.20;61.69
68977;SHT31;56029;52.568;13.588;2023-03-01T16:11:04;6.05;63.17
68977;SHT31;56029;52.568;13.588;2023-03-01T16:13:31;5.96;63.80
68977;SHT31;56029;52.568;13.588;2023-03-01T16:15:58;5.85;62.85
68977;SHT31;56029;52.568;13.588;2023-03-01T16:18:24;5.95;62.20
68977;SHT31;56029;52.568;13.588;2023-03-01T16:20:49;5.78;63.31
68977;SHT31;56029;52.568;13.588;2023-03-01T16:23:15;5.69;63.22
68977;SHT31;56029;52.568;13.588;2023-03-01T16:25:40;5.58;63.98
68977;SHT31;56029;52.568;13.588;2023-03-01T16:28:06;5.43;64.80
68977;SHT31;56029;52.568;13.588;2023-03-01T16:30:37;5.43;64.31
68977;SHT31;56029;52.568;13.588;2023-03-01T16:33:02;5.28;64.88
68977;SHT31;56029;52.568;13.588;2023-03-01T16:35:32;5.16;66.17
68977;SHT31;56029;52.568;13.588;2023-03-01T16:37:59;5.01;67.22
68977;SHT31;56029;52.568;13.588;2023-03-01T16:40:28;4.83;68.24
68977;SHT31;56029;52.568;13.588;2023-03-01T16:42:55;4.68;68.97
68977;SHT31;56029;52.568;13.588;2023-03-01T16:45:25;4.52;69.74
68977;SHT31;56029;52.568;13.588;2023-03-01T16:47:52;4.37;71.45